sensor_id;sensor_type;location;lat;lon;timestamp;P1;durP1;ratioP1;P2;durP2;ratioP2
74162;SDS011;62515;52.758;5.076;2023-05-10T00:01:19;18.85;;;16.33;;
74162;SDS011;62515;52.758;5.076;2023-05-10T00:03:45;18.67;;;15.30;;
74162;SDS011;62515;52.758;5.076;2023-05-10T00:06:12;27.38;;;25.05;;
74162;SDS011;62515;52.758;5.076;2023-05-10T00:08:41;20.45;;;16.23;;
74162;SDS011;62515;52.758;5.076;2023-05-10T00:11:07;18.83;;;16.00;;
74162;SDS011;62515;52.758;5.076;2023-05-10T00:13:34;23.38;;;17.67;;
74162;SDS011;62515;52.758;5.076;2023-05-10T00:16:01;23.80;;;16.27;;
74162;SDS011;62515;52.758;5.076;2023-05-10T00:18:28;24.70;;;17.67;;
74162;SDS011;62515;52.758;5.076;2023-05-10T00:20:55;23.75;;;19.10;;
74162;SDS011;62515;52.758;5.076;2023-05-10T00:23:21;16.50;;;11.48;;
74162;SDS011;62515;52.758;5.076;2023-05-10T00:25:50;25.38;;;17.02;;
74162;SDS011;62515;52.758;5.076;2023-05-10T00:28:16;28.25;;;17.08;;
74162;SDS011;62515;52.758;5.076;2023-05-10T00:30:43;23.88;;;16.52;;
74162;SDS011;62515;52.758;5.076;2023-05-10T00:33:10;22.50;;;18.70;;
74162;SDS011;62515;52.758;5.076;2023-05-10T00:35:36;30.70;;;17.83;;
74162;SDS011;62515;52.758;5.076;2023-05-10T00:38:03;27.95;;;16.00;;
74162;SDS011;62515;52.758;5.076;2023-05-10T00:40:30;25.15;;;16.77;;
74162;SDS011;62515;52.758;5.076;2023-05-10T00:43:03;29.75;;;18.05;;
74162;SDS011;62515;52.758;5.076;2023-05-10T00:45:30;30.02;;;18.98;;
74162;SDS011;62515;52.758;5.076;2023-05-10T00:47:58;27.27;;;19.38;;
74162;SDS011;62515;52.758;5.076;2023-05-10T00:50:27;28.83;;;17.23;;
74162;SDS011;62515;52.758;5.076;2023-05-10T00:52:54;23.75;;;12.07;;
74162;SDS011;62515;52.758;5.076;2023-05-10T00:55:21;27.92;;;16.85;;
74162;SDS011;62515;52.758;5.076;2023-05-10T00:57:48;28.25;;;16.55;;
74162;SDS011;62515;52.758;5.076;2023-05-10T01:00:17;30.77;;;20.02;;
74162;SDS011;62515;52.758;5.076;2023-05-10T01:02:44;31.42;;;18.85;;
74162;SDS011;62515;52.758;5.076;2023-05-10T01:05:11;28.17;;;13.77;;
74162;SDS011;62515;52.758;5.076;2023-05-10T01:07:38;31.65;;;13.10;;
74162;SDS011;62515;52.758;5.076;2023-05-10T01:10:06;24.08;;;17.23;;
74162;SDS011;62515;52.758;5.076;2023-05-10T01:12:35;26.33;;;18.05;;
74162;SDS011;62515;52.758;5.076;2023-05-10T01:15:05;32.75;;;18.20;;
74162;SDS011;62515;52.758;5.076;2023-05-10T01:17:36;30.77;;;17.35;;
74162;SDS011;62515;52.758;5.076;2023-05-10T01:20:06;29.75;;;19.52;;
74162;SDS011;62515;52.758;5.076;2023-05-10T01:22:44;23.58;;;18.02;;
74162;SDS011;62515;52.758;5.076;2023-05-10T01:25:37;23.55;;;15.10;;
74162;SDS011;62515;52.758;5.076;2023-05-10T01:31:22;32.58;;;17.38;;
74162;SDS011;62515;52.758;5.076;2023-05-10T01:34:02;32.22;;;14.40;;
74162;SDS011;62515;52.758;5.076;2023-05-10T01:36:35;35.50;;;18.00;;
74162;SDS011;62515;52.758;5.076;2023-05-10T01:39:11;24.83;;;12.82;;
74162;SDS011;62515;52.758;5.076;2023-05-10T01:41:44;25.15;;;16.52;;
74162;SDS011;62515;52.758;5.076;2023-05-10T01:44:16;27.73;;;17.17;;
74162;SDS011;62515;52.758;5.076;2023-05-10T01:46:48;28.73;;;18.40;;
74162;SDS011;62515;52.758;5.076;2023-05-10T01:49:25;27.70;;;17.30;;
74162;SDS011;62515;52.758;5.076;2023-05-10T01:51:57;28.17;;;17.58;;
74162;SDS011;62515;52.758;5.076;2023-05-10T01:54:30;29.42;;;17.52;;
74162;SDS011;62515;52.758;5.076;2023-05-10T01:57:01;33.85;;;19.10;;
74162;SDS011;62515;52.758;5.076;2023-05-10T01:59:34;28.10;;;18.13;;
74162;SDS011;62515;52.758;5.076;2023-05-10T02:02:01;30.30;;;17.52;;
74162;SDS011;62515;52.758;5.076;2023-05-10T02:04:32;33.10;;;18.70;;
74162;SDS011;62515;52.758;5.076;2023-05-10T02:07:03;37.47;;;19.42;;
74162;SDS011;62515;52.758;5.076;2023-05-10T02:09:31;29.88;;;18.90;;
74162;SDS011;62515;52.758;5.076;2023-05-10T02:11:59;31.98;;;17.05;;
74162;SDS011;62515;52.758;5.076;2023-05-10T02:14:29;29.67;;;14.70;;
74162;SDS011;62515;52.758;5.076;2023-05-10T02:16:58;31.98;;;17.08;;
74162;SDS011;62515;52.758;5.076;2023-05-10T02:19:26;29.05;;;17.00;;
74162;SDS011;62515;52.758;5.076;2023-05-10T02:21:57;26.85;;;13.10;;
74162;SDS011;62515;52.758;5.076;2023-05-10T02:24:27;30.70;;;17.20;;
74162;SDS011;62515;52.758;5.076;2023-05-10T02:26:55;32.13;;;16.90;;
74162;SDS011;62515;52.758;5.076;2023-05-10T02:29:23;30.27;;;18.33;;
74162;SDS011;62515;52.758;5.076;2023-05-10T02:31:53;39.22;;;19.25;;
74162;SDS011;62515;52.758;5.076;2023-05-10T02:34:21;32.03;;;17.25;;
74162;SDS011;62515;52.758;5.076;2023-05-10T02:36:49;41.83;;;19.52;;
74162;SDS011;62515;52.758;5.076;2023-05-10T02:39:19;31.48;;;14.38;;
74162;SDS011;62515;52.758;5.076;2023-05-10T02:41:48;37.88;;;17.67;;
74162;SDS011;62515;52.758;5.076;2023-05-10T02:44:17;35.72;;;17.05;;
74162;SDS011;62515;52.758;5.076;2023-05-10T02:46:45;38.40;;;18.15;;
74162;SDS011;62515;52.758;5.076;2023-05-10T02:49:13;37.67;;;18.20;;
74162;SDS011;62515;52.758;5.076;2023-05-10T02:51:40;36.75;;;16.83;;
74162;SDS011;62515;52.758;5.076;2023-05-10T02:54:10;30.80;;;12.32;;
74162;SDS011;62515;52.758;5.076;2023-05-10T02:56:59;39.88;;;13.48;;
74162;SDS011;62515;52.758;5.076;2023-05-10T02:59:29;39.38;;;15.88;;
74162;SDS011;62515;52.758;5.076;2023-05-10T03:01:56;31.05;;;15.73;;
74162;SDS011;62515;52.758;5.076;2023-05-10T03:04:24;30.58;;;14.68;;
74162;SDS011;62515;52.758;5.076;2023-05-10T03:06:53;28.33;;;12.23;;
74162;SDS011;62515;52.758;5.076;2023-05-10T03:09:20;36.22;;;15.30;;
74162;SDS011;62515;52.758;5.076;2023-05-10T03:11:53;25.60;;;11.70;;
74162;SDS011;62515;52.758;5.076;2023-05-10T03:14:30;34.75;;;15.95;;
74162;SDS011;62515;52.758;5.076;2023-05-10T03:17:10;29.95;;;15.38;;
74162;SDS011;62515;52.758;5.076;2023-05-10T03:19:43;34.30;;;15.70;;
74162;SDS011;62515;52.758;5.076;2023-05-10T03:22:13;36.53;;;15.50;;
74162;SDS011;62515;52.758;5.076;2023-05-10T03:24:47;30.30;;;15.15;;
74162;SDS011;62515;52.758;5.076;2023-05-10T03:27:17;32.33;;;15.88;;
74162;SDS011;62515;52.758;5.076;2023-05-10T03:29:44;26.27;;;10.80;;
74162;SDS011;62515;52.758;5.076;2023-05-10T03:32:13;28.65;;;15.82;;
74162;SDS011;62515;52.758;5.076;2023-05-10T03:34:41;23.60;;;14.88;;
74162;SDS011;62515;52.758;5.076;2023-05-10T03:37:08;24.02;;;14.63;;
74162;SDS011;62515;52.758;5.076;2023-05-10T03:39:35;21.35;;;13.13;;
74162;SDS011;62515;52.758;5.076;2023-05-10T03:42:04;22.30;;;13.88;;
74162;SDS011;62515;52.758;5.076;2023-05-10T03:44:32;26.55;;;12.98;;
74162;SDS011;62515;52.758;5.076;2023-05-10T03:46:59;22.65;;;13.18;;
74162;SDS011;62515;52.758;5.076;2023-05-10T03:49:26;22.63;;;14.45;;
74162;SDS011;62515;52.758;5.076;2023-05-10T03:51:53;20.60;;;9.70;;
74162;SDS011;62515;52.758;5.076;2023-05-10T03:54:20;23.73;;;13.73;;
74162;SDS011;62515;52.758;5.076;2023-05-10T03:56:47;23.25;;;15.50;;
74162;SDS011;62515;52.758;5.076;2023-05-10T03:59:15;21.45;;;14.20;;
74162;SDS011;62515;52.758;5.076;2023-05-10T04:01:43;22.75;;;15.50;;
74162;SDS011;62515;52.758;5.076;2023-05-10T04:04:10;24.33;;;15.20;;
74162;SDS011;62515;52.758;5.076;2023-05-10T04:06:37;24.45;;;14.70;;
74162;SDS011;62515;52.758;5.076;2023-05-10T04:09:04;26.98;;;16.00;;
74162;SDS011;62515;52.758;5.076;2023-05-10T04:11:31;19.02;;;14.48;;
74162;SDS011;62515;52.758;5.076;2023-05-10T04:13:58;22.20;;;14.07;;
74162;SDS011;62515;52.758;5.076;2023-05-10T04:16:24;21.58;;;15.43;;
74162;SDS011;62515;52.758;5.076;2023-05-10T04:18:53;21.08;;;13.75;;
74162;SDS011;62515;52.758;5.076;2023-05-10T04:21:19;23.30;;;15.57;;
74162;SDS011;62515;52.758;5.076;2023-05-10T04:23:46;20.45;;;15.57;;
74162;SDS011;62515;52.758;5.076;2023-05-10T04:26:13;19.35;;;14.88;;
74162;SDS011;62515;52.758;5.076;2023-05-10T04:28:40;18.88;;;14.32;;
74162;SDS011;62515;52.758;5.076;2023-05-10T04:31:07;21.02;;;14.20;;
74162;SDS011;62515;52.758;5.076;2023-05-10T04:33:35;22.42;;;15.98;;
74162;SDS011;62515;52.758;5.076;2023-05-10T04:36:04;21.13;;;14.52;;
74162;SDS011;62515;52.758;5.076;2023-05-10T04:38:31;17.77;;;10.00;;
74162;SDS011;62515;52.758;5.076;2023-05-10T04:41:05;20.40;;;11.43;;
74162;SDS011;62515;52.758;5.076;2023-05-10T04:43:32;24.73;;;13.23;;
74162;SDS011;62515;52.758;5.076;2023-05-10T04:45:59;24.33;;;14.85;;
74162;SDS011;62515;52.758;5.076;2023-05-10T04:48:26;26.25;;;13.60;;
74162;SDS011;62515;52.758;5.076;2023-05-10T04:50:53;21.73;;;14.43;;
74162;SDS011;62515;52.758;5.076;2023-05-10T04:53:21;22.05;;;14.30;;
74162;SDS011;62515;52.758;5.076;2023-05-10T04:55:47;25.30;;;14.80;;
74162;SDS011;62515;52.758;5.076;2023-05-10T04:58:14;22.17;;;15.35;;
74162;SDS011;62515;52.758;5.076;2023-05-10T05:00:41;26.02;;;16.80;;
74162;SDS011;62515;52.758;5.076;2023-05-10T05:03:08;24.38;;;11.00;;
74162;SDS011;62515;52.758;5.076;2023-05-10T05:05:35;21.33;;;11.88;;
74162;SDS011;62515;52.758;5.076;2023-05-10T05:08:02;22.83;;;14.25;;
74162;SDS011;62515;52.758;5.076;2023-05-10T05:10:30;26.45;;;18.10;;
74162;SDS011;62515;52.758;5.076;2023-05-10T05:12:57;26.52;;;16.67;;
74162;SDS011;62515;52.758;5.076;2023-05-10T05:15:23;24.42;;;15.00;;
74162;SDS011;62515;52.758;5.076;2023-05-10T05:17:50;25.00;;;15.10;;
74162;SDS011;62515;52.758;5.076;2023-05-10T05:20:17;27.02;;;15.32;;
74162;SDS011;62515;52.758;5.076;2023-05-10T05:22:44;29.70;;;16.88;;
74162;SDS011;62515;52.758;5.076;2023-05-10T05:25:11;25.75;;;15.73;;
74162;SDS011;62515;52.758;5.076;2023-05-10T05:27:39;26.13;;;15.68;;
74162;SDS011;62515;52.758;5.076;2023-05-10T05:30:06;24.70;;;14.93;;
74162;SDS011;62515;52.758;5.076;2023-05-10T05:32:34;30.38;;;18.10;;
74162;SDS011;62515;52.758;5.076;2023-05-10T05:35:01;30.80;;;18.15;;
74162;SDS011;62515;52.758;5.076;2023-05-10T05:37:28;30.65;;;18.15;;
74162;SDS011;62515;52.758;5.076;2023-05-10T05:39:54;31.52;;;16.83;;
74162;SDS011;62515;52.758;5.076;2023-05-10T05:42:21;32.30;;;17.50;;
74162;SDS011;62515;52.758;5.076;2023-05-10T05:44:49;27.95;;;18.17;;
74162;SDS011;62515;52.758;5.076;2023-05-10T05:47:16;33.28;;;18.00;;
74162;SDS011;62515;52.758;5.076;2023-05-10T05:49:42;31.98;;;18.35;;
74162;SDS011;62515;52.758;5.076;2023-05-10T05:52:09;32.78;;;18.73;;
74162;SDS011;62515;52.758;5.076;2023-05-10T05:54:36;28.52;;;16.70;;
74162;SDS011;62515;52.758;5.076;2023-05-10T05:57:03;29.02;;;18.65;;
74162;SDS011;62515;52.758;5.076;2023-05-10T05:59:30;27.50;;;17.58;;
74162;SDS011;62515;52.758;5.076;2023-05-10T06:01:58;30.27;;;18.75;;
74162;SDS011;62515;52.758;5.076;2023-05-10T06:04:25;26.45;;;18.48;;
74162;SDS011;62515;52.758;5.076;2023-05-10T06:06:52;23.88;;;18.33;;
74162;SDS011;62515;52.758;5.076;2023-05-10T06:09:19;25.83;;;19.83;;
74162;SDS011;62515;52.758;5.076;2023-05-10T06:11:46;24.02;;;19.05;;
74162;SDS011;62515;52.758;5.076;2023-05-10T06:14:13;28.70;;;18.80;;
74162;SDS011;62515;52.758;5.076;2023-05-10T06:16:39;23.17;;;14.48;;
74162;SDS011;62515;52.758;5.076;2023-05-10T06:19:07;27.48;;;19.58;;
74162;SDS011;62515;52.758;5.076;2023-05-10T06:21:34;24.45;;;19.98;;
74162;SDS011;62515;52.758;5.076;2023-05-10T06:24:01;28.30;;;20.00;;
74162;SDS011;62515;52.758;5.076;2023-05-10T06:26:27;26.85;;;21.63;;
74162;SDS011;62515;52.758;5.076;2023-05-10T06:28:54;26.90;;;21.73;;
74162;SDS011;62515;52.758;5.076;2023-05-10T06:31:21;31.50;;;24.00;;
74162;SDS011;62515;52.758;5.076;2023-05-10T06:33:48;29.70;;;22.00;;
74162;SDS011;62515;52.758;5.076;2023-05-10T06:36:17;23.80;;;15.95;;
74162;SDS011;62515;52.758;5.076;2023-05-10T06:38:43;22.50;;;19.30;;
74162;SDS011;62515;52.758;5.076;2023-05-10T06:41:10;25.38;;;18.67;;
74162;SDS011;62515;52.758;5.076;2023-05-10T06:43:37;24.05;;;19.58;;
74162;SDS011;62515;52.758;5.076;2023-05-10T06:46:04;23.60;;;18.52;;
74162;SDS011;62515;52.758;5.076;2023-05-10T06:48:31;29.98;;;27.00;;
74162;SDS011;62515;52.758;5.076;2023-05-10T06:50:58;25.25;;;21.58;;
74162;SDS011;62515;52.758;5.076;2023-05-10T06:53:26;26.42;;;19.20;;
74162;SDS011;62515;52.758;5.076;2023-05-10T06:55:53;20.77;;;18.33;;
74162;SDS011;62515;52.758;5.076;2023-05-10T06:58:19;22.77;;;18.20;;
74162;SDS011;62515;52.758;5.076;2023-05-10T07:00:47;19.98;;;17.88;;
74162;SDS011;62515;52.758;5.076;2023-05-10T07:03:14;21.90;;;19.60;;
74162;SDS011;62515;52.758;5.076;2023-05-10T07:05:41;19.75;;;16.38;;
74162;SDS011;62515;52.758;5.076;2023-05-10T07:08:08;18.77;;;16.27;;
74162;SDS011;62515;52.758;5.076;2023-05-10T07:10:36;18.30;;;16.50;;
74162;SDS011;62515;52.758;5.076;2023-05-10T07:13:03;18.42;;;16.55;;
74162;SDS011;62515;52.758;5.076;2023-05-10T07:15:30;13.68;;;12.20;;
74162;SDS011;62515;52.758;5.076;2023-05-10T07:17:57;19.98;;;17.42;;
74162;SDS011;62515;52.758;5.076;2023-05-10T07:20:24;19.30;;;17.38;;
74162;SDS011;62515;52.758;5.076;2023-05-10T07:22:51;18.35;;;16.70;;
74162;SDS011;62515;52.758;5.076;2023-05-10T07:25:18;13.43;;;11.85;;
74162;SDS011;62515;52.758;5.076;2023-05-10T07:27:46;19.33;;;17.52;;
74162;SDS011;62515;52.758;5.076;2023-05-10T07:30:13;19.23;;;17.52;;
74162;SDS011;62515;52.758;5.076;2023-05-10T07:32:40;21.48;;;19.63;;
74162;SDS011;62515;52.758;5.076;2023-05-10T07:35:07;19.65;;;17.95;;
74162;SDS011;62515;52.758;5.076;2023-05-10T07:37:34;21.52;;;19.63;;
74162;SDS011;62515;52.758;5.076;2023-05-10T07:40:01;18.02;;;15.57;;
74162;SDS011;62515;52.758;5.076;2023-05-10T07:42:28;16.77;;;15.30;;
74162;SDS011;62515;52.758;5.076;2023-05-10T07:44:56;17.27;;;15.57;;
74162;SDS011;62515;52.758;5.076;2023-05-10T07:47:23;16.27;;;14.90;;
74162;SDS011;62515;52.758;5.076;2023-05-10T07:49:50;14.25;;;12.95;;
74162;SDS011;62515;52.758;5.076;2023-05-10T07:52:17;14.27;;;12.82;;
74162;SDS011;62515;52.758;5.076;2023-05-10T07:54:43;14.65;;;13.13;;
74162;SDS011;62515;52.758;5.076;2023-05-10T07:57:10;15.23;;;13.93;;
74162;SDS011;62515;52.758;5.076;2023-05-10T07:59:37;15.13;;;13.52;;
74162;SDS011;62515;52.758;5.076;2023-05-10T08:02:05;14.48;;;12.98;;
74162;SDS011;62515;52.758;5.076;2023-05-10T08:04:32;15.45;;;14.02;;
74162;SDS011;62515;52.758;5.076;2023-05-10T08:06:59;14.63;;;13.25;;
74162;SDS011;62515;52.758;5.076;2023-05-10T08:09:26;21.48;;;19.67;;
74162;SDS011;62515;52.758;5.076;2023-05-10T08:11:53;15.60;;;14.10;;
74162;SDS011;62515;52.758;5.076;2023-05-10T08:14:19;16.73;;;15.13;;
74162;SDS011;62515;52.758;5.076;2023-05-10T08:16:46;16.98;;;14.73;;
74162;SDS011;62515;52.758;5.076;2023-05-10T08:19:14;14.85;;;13.32;;
74162;SDS011;62515;52.758;5.076;2023-05-10T08:21:41;17.52;;;15.90;;
74162;SDS011;62515;52.758;5.076;2023-05-10T08:24:08;11.73;;;9.85;;
74162;SDS011;62515;52.758;5.076;2023-05-10T08:26:34;13.55;;;12.20;;
74162;SDS011;62515;52.758;5.076;2023-05-10T08:29:01;13.30;;;11.88;;
74162;SDS011;62515;52.758;5.076;2023-05-10T08:31:28;12.93;;;11.63;;
74162;SDS011;62515;52.758;5.076;2023-05-10T08:33:55;12.40;;;11.20;;
74162;SDS011;62515;52.758;5.076;2023-05-10T08:36:23;13.10;;;11.82;;
74162;SDS011;62515;52.758;5.076;2023-05-10T08:38:50;14.27;;;11.70;;
74162;SDS011;62515;52.758;5.076;2023-05-10T08:41:18;13.57;;;12.18;;
74162;SDS011;62515;52.758;5.076;2023-05-10T08:43:46;14.48;;;12.93;;
74162;SDS011;62515;52.758;5.076;2023-05-10T08:46:14;12.43;;;11.27;;
74162;SDS011;62515;52.758;5.076;2023-05-10T08:48:43;14.18;;;12.70;;
74162;SDS011;62515;52.758;5.076;2023-05-10T08:51:11;14.55;;;13.02;;
74162;SDS011;62515;52.758;5.076;2023-05-10T08:53:42;16.00;;;12.35;;
74162;SDS011;62515;52.758;5.076;2023-05-10T08:56:11;49.15;;;43.88;;
74162;SDS011;62515;52.758;5.076;2023-05-10T08:58:38;14.98;;;13.50;;
74162;SDS011;62515;52.758;5.076;2023-05-10T09:01:05;12.70;;;11.57;;
74162;SDS011;62515;52.758;5.076;2023-05-10T09:03:33;14.15;;;12.25;;
74162;SDS011;62515;52.758;5.076;2023-05-10T09:06:01;14.52;;;12.98;;
74162;SDS011;62515;52.758;5.076;2023-05-10T09:08:28;14.95;;;12.43;;
74162;SDS011;62515;52.758;5.076;2023-05-10T09:10:57;12.90;;;11.60;;
74162;SDS011;62515;52.758;5.076;2023-05-10T09:13:24;13.85;;;12.55;;
74162;SDS011;62515;52.758;5.076;2023-05-10T09:15:51;10.90;;;8.75;;
74162;SDS011;62515;52.758;5.076;2023-05-10T09:18:20;12.10;;;10.93;;
74162;SDS011;62515;52.758;5.076;2023-05-10T09:20:46;14.10;;;12.68;;
74162;SDS011;62515;52.758;5.076;2023-05-10T09:23:14;14.90;;;12.73;;
74162;SDS011;62515;52.758;5.076;2023-05-10T09:25:41;13.25;;;10.13;;
74162;SDS011;62515;52.758;5.076;2023-05-10T09:28:10;12.95;;;11.65;;
74162;SDS011;62515;52.758;5.076;2023-05-10T09:30:37;11.60;;;8.07;;
74162;SDS011;62515;52.758;5.076;2023-05-10T09:33:04;14.02;;;12.63;;
74162;SDS011;62515;52.758;5.076;2023-05-10T09:35:31;15.50;;;13.43;;
74162;SDS011;62515;52.758;5.076;2023-05-10T09:37:59;15.10;;;12.38;;
74162;SDS011;62515;52.758;5.076;2023-05-10T09:40:27;13.13;;;11.75;;
74162;SDS011;62515;52.758;5.076;2023-05-10T09:42:55;15.40;;;13.90;;
74162;SDS011;62515;52.758;5.076;2023-05-10T09:45:25;18.13;;;14.40;;
74162;SDS011;62515;52.758;5.076;2023-05-10T09:47:54;15.63;;;12.80;;
74162;SDS011;62515;52.758;5.076;2023-05-10T09:50:21;14.68;;;12.27;;
74162;SDS011;62515;52.758;5.076;2023-05-10T09:52:49;15.02;;;13.27;;
74162;SDS011;62515;52.758;5.076;2023-05-10T09:55:17;14.55;;;12.57;;
74162;SDS011;62515;52.758;5.076;2023-05-10T09:57:46;14.57;;;13.25;;
74162;SDS011;62515;52.758;5.076;2023-05-10T10:00:16;15.63;;;14.02;;
74162;SDS011;62515;52.758;5.076;2023-05-10T10:02:46;19.10;;;17.30;;
74162;SDS011;62515;52.758;5.076;2023-05-10T10:05:14;18.75;;;15.30;;
74162;SDS011;62515;52.758;5.076;2023-05-10T10:07:41;16.42;;;14.73;;
74162;SDS011;62515;52.758;5.076;2023-05-10T10:10:08;15.27;;;13.77;;
74162;SDS011;62515;52.758;5.076;2023-05-10T10:12:36;14.30;;;10.75;;
74162;SDS011;62515;52.758;5.076;2023-05-10T10:15:03;16.42;;;14.73;;
74162;SDS011;62515;52.758;5.076;2023-05-10T10:17:30;19.55;;;14.93;;
74162;SDS011;62515;52.758;5.076;2023-05-10T10:20:00;17.55;;;15.65;;
74162;SDS011;62515;52.758;5.076;2023-05-10T10:22:28;16.65;;;14.70;;
74162;SDS011;62515;52.758;5.076;2023-05-10T10:24:55;19.23;;;15.05;;
74162;SDS011;62515;52.758;5.076;2023-05-10T10:27:23;18.02;;;16.15;;
74162;SDS011;62515;52.758;5.076;2023-05-10T10:30:02;18.05;;;16.15;;
74162;SDS011;62515;52.758;5.076;2023-05-10T10:32:43;16.85;;;14.50;;
74162;SDS011;62515;52.758;5.076;2023-05-10T10:35:27;15.18;;;13.57;;
74162;SDS011;62515;52.758;5.076;2023-05-10T10:37:55;13.95;;;11.27;;
74162;SDS011;62515;52.758;5.076;2023-05-10T10:40:23;13.70;;;10.80;;
74162;SDS011;62515;52.758;5.076;2023-05-10T10:42:54;14.63;;;13.07;;
74162;SDS011;62515;52.758;5.076;2023-05-10T10:45:21;15.07;;;12.98;;
74162;SDS011;62515;52.758;5.076;2023-05-10T10:47:53;13.20;;;9.63;;
74162;SDS011;62515;52.758;5.076;2023-05-10T10:50:47;16.08;;;14.60;;
74162;SDS011;62515;52.758;5.076;2023-05-10T10:53:14;15.23;;;13.50;;
74162;SDS011;62515;52.758;5.076;2023-05-10T10:55:46;14.02;;;12.63;;
74162;SDS011;62515;52.758;5.076;2023-05-10T10:58:28;14.65;;;13.13;;
74162;SDS011;62515;52.758;5.076;2023-05-10T11:01:08;13.20;;;11.90;;
74162;SDS011;62515;52.758;5.076;2023-05-10T11:03:37;12.88;;;11.63;;
74162;SDS011;62515;52.758;5.076;2023-05-10T11:06:05;14.48;;;12.80;;
74162;SDS011;62515;52.758;5.076;2023-05-10T11:08:33;12.38;;;11.18;;
74162;SDS011;62515;52.758;5.076;2023-05-10T11:11:07;11.10;;;10.07;;
74162;SDS011;62515;52.758;5.076;2023-05-10T11:13:37;10.32;;;7.60;;
74162;SDS011;62515;52.758;5.076;2023-05-10T11:16:17;9.60;;;8.70;;
74162;SDS011;62515;52.758;5.076;2023-05-10T11:18:51;10.43;;;9.43;;
74162;SDS011;62515;52.758;5.076;2023-05-10T11:21:21;10.23;;;8.93;;
74162;SDS011;62515;52.758;5.076;2023-05-10T11:23:49;12.15;;;10.85;;
74162;SDS011;62515;52.758;5.076;2023-05-10T11:26:17;12.07;;;10.98;;
74162;SDS011;62515;52.758;5.076;2023-05-10T11:28:46;10.15;;;9.15;;
74162;SDS011;62515;52.758;5.076;2023-05-10T11:31:13;16.08;;;14.15;;
74162;SDS011;62515;52.758;5.076;2023-05-10T11:33:44;14.43;;;13.02;;
74162;SDS011;62515;52.758;5.076;2023-05-10T11:36:12;13.55;;;12.30;;
74162;SDS011;62515;52.758;5.076;2023-05-10T11:38:40;14.32;;;13.02;;
74162;SDS011;62515;52.758;5.076;2023-05-10T11:41:07;12.88;;;11.57;;
74162;SDS011;62515;52.758;5.076;2023-05-10T11:43:35;12.55;;;11.27;;
74162;SDS011;62515;52.758;5.076;2023-05-10T11:46:02;13.07;;;11.88;;
74162;SDS011;62515;52.758;5.076;2023-05-10T11:48:29;11.35;;;10.32;;
74162;SDS011;62515;52.758;5.076;2023-05-10T11:50:56;11.30;;;10.30;;
74162;SDS011;62515;52.758;5.076;2023-05-10T11:53:24;12.98;;;11.93;;
74162;SDS011;62515;52.758;5.076;2023-05-10T11:55:53;12.27;;;11.05;;
74162;SDS011;62515;52.758;5.076;2023-05-10T11:58:20;11.85;;;10.77;;
74162;SDS011;62515;52.758;5.076;2023-05-10T12:00:47;12.02;;;11.02;;
74162;SDS011;62515;52.758;5.076;2023-05-10T12:03:15;12.18;;;11.07;;
74162;SDS011;62515;52.758;5.076;2023-05-10T12:05:42;14.60;;;13.35;;
74162;SDS011;62515;52.758;5.076;2023-05-10T12:08:12;9.00;;;8.27;;
74162;SDS011;62515;52.758;5.076;2023-05-10T12:10:40;10.82;;;9.98;;
74162;SDS011;62515;52.758;5.076;2023-05-10T12:13:11;10.73;;;9.82;;
74162;SDS011;62515;52.758;5.076;2023-05-10T12:15:39;10.80;;;9.90;;
74162;SDS011;62515;52.758;5.076;2023-05-10T12:18:06;10.73;;;9.70;;
74162;SDS011;62515;52.758;5.076;2023-05-10T12:23:02;10.80;;;9.80;;
74162;SDS011;62515;52.758;5.076;2023-05-10T12:25:29;10.60;;;9.70;;
74162;SDS011;62515;52.758;5.076;2023-05-10T12:27:58;9.43;;;8.57;;
74162;SDS011;62515;52.758;5.076;2023-05-10T12:30:28;9.68;;;8.88;;
74162;SDS011;62515;52.758;5.076;2023-05-10T12:35:27;11.07;;;10.15;;
74162;SDS011;62515;52.758;5.076;2023-05-10T12:37:56;11.30;;;10.38;;
74162;SDS011;62515;52.758;5.076;2023-05-10T12:40:23;11.57;;;10.57;;
74162;SDS011;62515;52.758;5.076;2023-05-10T12:42:50;11.65;;;10.65;;
74162;SDS011;62515;52.758;5.076;2023-05-10T12:45:17;9.68;;;7.97;;
74162;SDS011;62515;52.758;5.076;2023-05-10T12:47:45;9.18;;;7.93;;
74162;SDS011;62515;52.758;5.076;2023-05-10T12:50:12;10.32;;;8.63;;
74162;SDS011;62515;52.758;5.076;2023-05-10T12:52:39;12.60;;;11.43;;
74162;SDS011;62515;52.758;5.076;2023-05-10T12:55:06;15.63;;;14.32;;
74162;SDS011;62515;52.758;5.076;2023-05-10T12:57:34;16.45;;;15.02;;
74162;SDS011;62515;52.758;5.076;2023-05-10T13:00:00;13.82;;;12.68;;
74162;SDS011;62515;52.758;5.076;2023-05-10T13:02:27;7.28;;;6.68;;
74162;SDS011;62515;52.758;5.076;2023-05-10T13:04:56;14.30;;;13.20;;
74162;SDS011;62515;52.758;5.076;2023-05-10T13:07:22;13.70;;;12.57;;
74162;SDS011;62515;52.758;5.076;2023-05-10T13:09:49;13.70;;;12.55;;
74162;SDS011;62515;52.758;5.076;2023-05-10T13:12:16;13.82;;;12.60;;
74162;SDS011;62515;52.758;5.076;2023-05-10T13:14:42;13.80;;;12.70;;
74162;SDS011;62515;52.758;5.076;2023-05-10T13:17:09;11.68;;;10.52;;
74162;SDS011;62515;52.758;5.076;2023-05-10T13:19:36;13.63;;;12.57;;
74162;SDS011;62515;52.758;5.076;2023-05-10T13:22:04;12.60;;;10.80;;
74162;SDS011;62515;52.758;5.076;2023-05-10T13:24:31;12.52;;;11.43;;
74162;SDS011;62515;52.758;5.076;2023-05-10T13:26:58;10.68;;;9.63;;
74162;SDS011;62515;52.758;5.076;2023-05-10T13:29:25;9.82;;;9.02;;
74162;SDS011;62515;52.758;5.076;2023-05-10T13:31:51;9.48;;;8.57;;
74162;SDS011;62515;52.758;5.076;2023-05-10T13:34:18;10.57;;;9.70;;
74162;SDS011;62515;52.758;5.076;2023-05-10T13:36:45;10.70;;;9.65;;
74162;SDS011;62515;52.758;5.076;2023-05-10T13:39:14;10.45;;;9.55;;
74162;SDS011;62515;52.758;5.076;2023-05-10T13:41:41;12.32;;;11.13;;
74162;SDS011;62515;52.758;5.076;2023-05-10T13:44:08;12.13;;;11.13;;
74162;SDS011;62515;52.758;5.076;2023-05-10T13:46:35;11.48;;;10.48;;
74162;SDS011;62515;52.758;5.076;2023-05-10T13:49:02;9.43;;;8.05;;
74162;SDS011;62515;52.758;5.076;2023-05-10T13:51:29;14.23;;;13.13;;
74162;SDS011;62515;52.758;5.076;2023-05-10T13:53:56;12.93;;;11.90;;
74162;SDS011;62515;52.758;5.076;2023-05-10T13:56:24;13.68;;;12.57;;
74162;SDS011;62515;52.758;5.076;2023-05-10T13:58:51;12.38;;;11.38;;
74162;SDS011;62515;52.758;5.076;2023-05-10T14:13:32;8.95;;;8.00;;
74162;SDS011;62515;52.758;5.076;2023-05-10T14:15:58;11.25;;;10.25;;
74162;SDS011;62515;52.758;5.076;2023-05-10T14:18:25;9.85;;;9.05;;
74162;SDS011;62515;52.758;5.076;2023-05-10T14:20:52;10.77;;;9.85;;
74162;SDS011;62515;52.758;5.076;2023-05-10T14:23:19;9.60;;;8.80;;
74162;SDS011;62515;52.758;5.076;2023-05-10T14:25:46;10.23;;;9.43;;
74162;SDS011;62515;52.758;5.076;2023-05-10T14:28:13;10.23;;;9.25;;
74162;SDS011;62515;52.758;5.076;2023-05-10T14:30:41;6.85;;;6.15;;
74162;SDS011;62515;52.758;5.076;2023-05-10T14:33:07;9.77;;;8.98;;
74162;SDS011;62515;52.758;5.076;2023-05-10T14:35:34;12.73;;;11.57;;
74162;SDS011;62515;52.758;5.076;2023-05-10T14:38:01;9.80;;;8.90;;
74162;SDS011;62515;52.758;5.076;2023-05-10T14:40:28;10.38;;;9.48;;
74162;SDS011;62515;52.758;5.076;2023-05-10T14:42:55;10.90;;;10.02;;
74162;SDS011;62515;52.758;5.076;2023-05-10T14:45:22;10.05;;;9.25;;
74162;SDS011;62515;52.758;5.076;2023-05-10T14:47:50;11.85;;;10.85;;
74162;SDS011;62515;52.758;5.076;2023-05-10T14:50:17;9.02;;;8.23;;